createdAt,value
2016-10-03T00:00:59.857Z,1006.54
2016-10-03T00:01:59.834Z,1006.57
2016-10-03T00:02:59.808Z,1006.53
2016-10-03T00:03:59.785Z,1006.53
2016-10-03T00:04:59.760Z,1006.52
2016-10-03T00:05:59.733Z,1006.6
2016-10-03T00:06:59.711Z,1006.64
2016-10-03T00:07:59.684Z,1006.63
2016-10-03T00:08:59.660Z,1006.64
2016-10-03T00:09:59.637Z,1006.59
2016-10-03T00:10:59.612Z,1006.6
2016-10-03T00:11:59.587Z,1006.62
2016-10-03T00:12:59.560Z,1006.73
2016-10-03T00:13:59.538Z,1006.78
2016-10-03T00:14:59.512Z,1006.7
2016-10-03T00:15:59.491Z,1006.72
2016-10-03T00:16:59.464Z,1006.75
2016-10-03T00:17:59.441Z,1006.76
2016-10-03T00:18:59.416Z,1006.88
2016-10-03T00:19:59.388Z,1006.83
2016-10-03T00:20:59.366Z,1006.83
2016-10-03T00:21:59.341Z,1006.83
2016-10-03T00:22:59.316Z,1006.83
2016-10-03T00:23:59.292Z,1006.92
2016-10-03T00:24:59.265Z,1006.91
2016-10-03T00:25:59.243Z,1006.93
2016-10-03T00:26:59.217Z,1006.95
2016-10-03T00:27:59.193Z,1006.95
2016-10-03T00:28:59.166Z,1006.99
2016-10-03T00:29:59.142Z,1007
2016-10-03T00:30:59.119Z,1007.1
2016-10-03T00:31:59.092Z,1007.15
2016-10-03T00:32:59.068Z,1007.07
2016-10-03T00:33:59.044Z,1007.11
2016-10-03T00:34:59.020Z,1007.17
2016-10-03T00:35:58.996Z,1007.15
2016-10-03T00:36:58.971Z,1007.17
2016-10-03T00:37:58.947Z,1007.12
2016-10-03T00:38:58.921Z,1007.14
2016-10-03T00:39:58.895Z,1007.17
2016-10-03T00:40:58.873Z,1007.11
2016-10-03T00:41:58.845Z,1007.16
2016-10-03T00:42:58.821Z,1007.18
2016-10-03T00:43:58.797Z,1007.24
2016-10-03T00:44:58.774Z,1007.27
2016-10-03T00:45:58.749Z,1007.33
2016-10-03T00:46:58.726Z,1007.32
2016-10-03T00:47:58.700Z,1007.34
2016-10-03T00:48:58.673Z,1007.38
2016-10-03T00:49:58.649Z,1007.33
2016-10-03T00:50:58.626Z,1007.46
2016-10-03T00:51:58.599Z,1007.5
2016-10-03T00:52:58.576Z,1007.49
2016-10-03T00:53:58.556Z,1007.47
2016-10-03T00:54:58.525Z,1007.55
2016-10-03T00:55:58.503Z,1007.55
2016-10-03T00:56:58.476Z,1007.66
2016-10-03T00:57:58.451Z,1007.61
2016-10-03T00:58:58.427Z,1007.66
2016-10-03T00:59:58.401Z,1007.6
2016-10-03T01:00:58.379Z,1007.6
2016-10-03T01:01:58.352Z,1007.64
2016-10-03T01:02:58.331Z,1007.68
2016-10-03T01:03:58.302Z,1007.63
2016-10-03T01:04:58.279Z,1007.66
2016-10-03T01:05:58.255Z,1007.71
2016-10-03T01:06:58.230Z,1007.66
2016-10-03T01:07:58.204Z,1007.6
2016-10-03T01:08:58.179Z,1007.58
2016-10-03T01:09:58.157Z,1007.57
2016-10-03T01:10:58.130Z,1007.56
2016-10-03T01:11:58.105Z,1007.67
2016-10-03T01:12:58.081Z,1007.61
2016-10-03T01:13:58.057Z,1007.72
2016-10-03T01:14:58.036Z,1007.67
2016-10-03T01:15:58.007Z,1007.77
2016-10-03T01:16:57.981Z,1007.68
2016-10-03T01:17:57.956Z,1007.69
2016-10-03T01:18:57.931Z,1007.64
2016-10-03T01:19:57.909Z,1007.7
2016-10-03T01:20:57.882Z,1007.71
2016-10-03T01:21:57.857Z,1007.72
2016-10-03T01:22:57.832Z,1007.78
2016-10-03T01:23:57.807Z,1007.82
2016-10-03T01:24:57.785Z,1007.88
2016-10-03T01:25:57.757Z,1007.89
2016-10-03T01:26:57.735Z,1007.87
2016-10-03T01:27:57.710Z,1007.88
2016-10-03T01:28:57.684Z,1007.91
2016-10-03T01:29:57.659Z,1007.97
2016-10-03T01:30:57.635Z,1007.97
2016-10-03T01:31:57.610Z,1007.98
2016-10-03T01:32:57.585Z,1007.98
2016-10-03T01:33:57.558Z,1007.99
2016-10-03T01:34:57.532Z,1008.01
2016-10-03T01:35:57.507Z,1008
2016-10-03T01:36:57.481Z,1008.02
2016-10-03T01:37:57.459Z,1008.1
2016-10-03T01:38:57.431Z,1008.04
2016-10-03T01:39:57.408Z,1008.12
2016-10-03T01:40:57.381Z,1008.11
2016-10-03T01:41:57.358Z,1008.1
2016-10-03T01:42:57.334Z,1008.13
2016-10-03T01:43:57.306Z,1008.14
2016-10-03T01:44:57.283Z,1008.12
2016-10-03T01:45:57.256Z,1008.16
2016-10-03T01:46:57.230Z,1008.2
2016-10-03T01:47:57.207Z,1008.19
2016-10-03T01:48:57.182Z,1008.23
2016-10-03T01:49:57.155Z,1008.24
2016-10-03T01:50:57.129Z,1008.26
2016-10-03T01:51:57.106Z,1008.25
2016-10-03T01:52:57.080Z,1008.25
2016-10-03T01:53:57.056Z,1008.28
2016-10-03T01:54:57.031Z,1008.33
2016-10-03T01:55:57.021Z,1008.35
2016-10-03T01:56:56.981Z,1008.34
2016-10-03T01:57:56.955Z,1008.33
2016-10-03T01:58:56.929Z,1008.37
2016-10-03T01:59:56.905Z,1008.43
2016-10-03T02:00:56.879Z,1008.45
2016-10-03T02:01:56.858Z,1008.45
2016-10-03T02:02:56.828Z,1008.47
2016-10-03T02:03:56.803Z,1008.49
2016-10-03T02:04:56.777Z,1008.51
2016-10-03T02:05:56.751Z,1008.52
2016-10-03T02:06:56.725Z,1008.57
2016-10-03T02:07:56.699Z,1008.57
2016-10-03T02:08:56.678Z,1008.62
2016-10-03T02:09:56.648Z,1008.6
2016-10-03T02:10:56.623Z,1008.64
2016-10-03T02:11:56.598Z,1008.66
2016-10-03T02:12:56.572Z,1008.67
2016-10-03T02:13:56.548Z,1008.66
2016-10-03T02:14:56.522Z,1008.71
2016-10-03T02:15:56.497Z,1008.72
2016-10-03T02:16:56.470Z,1008.71
2016-10-03T02:17:56.447Z,1008.71
2016-10-03T02:18:56.422Z,1008.7
2016-10-03T02:19:56.395Z,1008.74
2016-10-03T02:20:56.372Z,1008.74
2016-10-03T02:21:56.347Z,1008.79
2016-10-03T02:22:56.320Z,1008.76
2016-10-03T02:23:56.296Z,1008.79
2016-10-03T02:24:56.269Z,1008.79
2016-10-03T02:25:56.243Z,1008.74
2016-10-03T02:26:56.221Z,1008.76
2016-10-03T02:27:56.192Z,1008.79
2016-10-03T02:28:56.175Z,1008.78
2016-10-03T02:29:56.145Z,1008.78
2016-10-03T02:30:56.119Z,1008.82
2016-10-03T02:31:56.092Z,1008.78
2016-10-03T02:32:56.068Z,1008.79
2016-10-03T02:33:56.040Z,1008.84
2016-10-03T02:34:56.017Z,1008.87
2016-10-03T02:35:55.989Z,1008.86
2016-10-03T02:36:55.964Z,1008.89
2016-10-03T02:37:55.939Z,1008.94
2016-10-03T02:38:55.913Z,1008.9
2016-10-03T02:39:55.889Z,1008.93
2016-10-03T02:40:55.862Z,1008.93
2016-10-03T02:41:55.839Z,1008.97
2016-10-03T02:42:55.813Z,1008.96
2016-10-03T02:43:55.788Z,1008.95
2016-10-03T02:44:55.763Z,1008.98
2016-10-03T02:45:55.786Z,1008.98
2016-10-03T02:46:55.711Z,1008.98
2016-10-03T02:47:55.685Z,1008.99
2016-10-03T02:48:55.662Z,1009.03
2016-10-03T02:49:55.636Z,1009.06
2016-10-03T02:50:55.609Z,1009.07
2016-10-03T02:51:55.584Z,1009.15
2016-10-03T02:52:55.560Z,1009.16
2016-10-03T02:53:55.533Z,1009.11
2016-10-03T02:54:55.507Z,1009.21
2016-10-03T02:55:55.483Z,1009.1
2016-10-03T02:56:55.462Z,1009.07
2016-10-03T02:57:55.431Z,1009.07
2016-10-03T02:58:55.408Z,1009.09
2016-10-03T02:59:55.382Z,1009.16
2016-10-03T03:00:55.355Z,1009.17
2016-10-03T03:01:55.332Z,1009.12
2016-10-03T03:02:55.304Z,1009.16
2016-10-03T03:03:55.278Z,1009.21
2016-10-03T03:04:55.255Z,1009.18
2016-10-03T03:05:55.231Z,1009.23
2016-10-03T03:06:55.203Z,1009.24
2016-10-03T03:07:55.177Z,1009.27
2016-10-03T03:08:55.152Z,1009.27
2016-10-03T03:09:55.129Z,1009.24
2016-10-03T03:10:55.102Z,1009.25
2016-10-03T03:11:55.078Z,1009.2
2016-10-03T03:12:55.051Z,1009.21
2016-10-03T03:13:55.025Z,1009.32
2016-10-03T03:14:55.002Z,1009.36
2016-10-03T03:15:54.976Z,1009.32
2016-10-03T03:16:54.952Z,1009.37
2016-10-03T03:17:54.927Z,1009.35
2016-10-03T03:18:54.899Z,1009.44
2016-10-03T03:19:54.882Z,1009.41
2016-10-03T03:20:54.848Z,1009.47
2016-10-03T03:21:54.826Z,1009.41
2016-10-03T03:22:54.800Z,1009.48
2016-10-03T03:23:54.776Z,1009.48
2016-10-03T03:24:54.749Z,1009.5
2016-10-03T03:25:54.723Z,1009.47
2016-10-03T03:26:54.698Z,1009.57
2016-10-03T03:27:54.673Z,1009.5
2016-10-03T03:28:54.648Z,1009.57
2016-10-03T03:29:54.620Z,1009.56
2016-10-03T03:30:54.598Z,1009.57
2016-10-03T03:31:54.572Z,1009.52
2016-10-03T03:32:54.547Z,1009.61
2016-10-03T03:33:54.522Z,1009.62
2016-10-03T03:34:54.495Z,1009.63
2016-10-03T03:35:54.472Z,1009.65
2016-10-03T03:36:54.443Z,1009.66
2016-10-03T03:37:54.421Z,1009.63
2016-10-03T03:38:54.392Z,1009.68
2016-10-03T03:39:54.371Z,1009.66
2016-10-03T03:40:54.344Z,1009.71
2016-10-03T03:41:54.320Z,1009.7
2016-10-03T03:42:54.293Z,1009.73
2016-10-03T03:43:54.267Z,1009.74
2016-10-03T03:44:54.243Z,1009.75
2016-10-03T03:45:54.218Z,1009.82
2016-10-03T03:46:54.191Z,1009.78
2016-10-03T03:47:54.167Z,1009.79
2016-10-03T03:48:54.142Z,1009.78
2016-10-03T03:49:54.115Z,1009.84
2016-10-03T03:50:54.090Z,1009.82
2016-10-03T03:51:54.064Z,1009.85
2016-10-03T03:52:54.040Z,1009.86
2016-10-03T03:53:54.017Z,1009.91
2016-10-03T03:54:53.992Z,1009.96
2016-10-03T03:55:53.972Z,1009.94
2016-10-03T03:56:53.940Z,1009.87
2016-10-03T03:57:53.916Z,1009.93
2016-10-03T03:58:53.890Z,1009.95
2016-10-03T03:59:53.867Z,1009.96
2016-10-03T04:00:53.840Z,1009.99
2016-10-03T04:01:53.818Z,1009.97
2016-10-03T04:02:53.792Z,1010
2016-10-03T04:03:53.767Z,1009.98
2016-10-03T04:04:53.743Z,1010.05
2016-10-03T04:05:53.719Z,1010.01
2016-10-03T04:06:53.691Z,1010.06
2016-10-03T04:07:53.665Z,1010.07
2016-10-03T04:08:53.639Z,1010.05
2016-10-03T04:09:53.614Z,1010.08
2016-10-03T04:10:53.591Z,1010.11
2016-10-03T04:11:53.566Z,1010.11
2016-10-03T04:12:53.539Z,1010.1
2016-10-03T04:13:53.514Z,1010.1
2016-10-03T04:14:53.491Z,1010.09
2016-10-03T04:15:53.463Z,1010.11
2016-10-03T04:16:53.439Z,1010.13
2016-10-03T04:17:53.414Z,1010.14
2016-10-03T04:18:53.391Z,1010.17
2016-10-03T04:19:53.364Z,1010.19
2016-10-03T04:20:53.341Z,1010.19
2016-10-03T04:21:53.315Z,1010.16
2016-10-03T04:22:53.289Z,1010.12
2016-10-03T04:23:53.264Z,1010.19
2016-10-03T04:24:53.238Z,1010.17
2016-10-03T04:25:53.214Z,1010.21
2016-10-03T04:26:53.188Z,1010.19
2016-10-03T04:27:53.165Z,1010.25
2016-10-03T04:28:53.140Z,1010.24
2016-10-03T04:29:53.115Z,1010.28
2016-10-03T04:30:53.089Z,1010.3
2016-10-03T04:31:53.064Z,1010.29
2016-10-03T04:32:53.044Z,1010.31
2016-10-03T04:33:53.016Z,1010.31
2016-10-03T04:34:52.991Z,1010.31
2016-10-03T04:35:52.965Z,1010.31
2016-10-03T04:36:52.940Z,1010.27
2016-10-03T04:37:52.915Z,1010.31
2016-10-03T04:38:52.890Z,1010.29
2016-10-03T04:39:52.862Z,1010.33
2016-10-03T04:40:52.839Z,1010.31
2016-10-03T04:41:52.816Z,1010.32
2016-10-03T04:42:52.790Z,1010.33
2016-10-03T04:43:52.764Z,1010.38
2016-10-03T04:44:52.738Z,1010.37
2016-10-03T04:45:52.716Z,1010.38
2016-10-03T04:46:52.688Z,1010.36
2016-10-03T04:47:52.663Z,1010.38
2016-10-03T04:48:52.640Z,1010.35
2016-10-03T04:49:52.616Z,1010.41
2016-10-03T04:50:52.589Z,1010.42
2016-10-03T04:51:52.564Z,1010.42
2016-10-03T04:52:52.539Z,1010.39
2016-10-03T04:53:52.516Z,1010.4
2016-10-03T04:54:52.491Z,1010.4
2016-10-03T04:55:52.464Z,1010.46
2016-10-03T04:56:52.442Z,1010.46
2016-10-03T04:57:52.413Z,1010.47
2016-10-03T04:58:52.392Z,1010.43
2016-10-03T04:59:52.369Z,1010.46
2016-10-03T05:00:52.338Z,1010.48
2016-10-03T05:01:52.314Z,1010.5
2016-10-03T05:02:52.291Z,1010.5
2016-10-03T05:03:52.266Z,1010.55
2016-10-03T05:04:52.239Z,1010.55
2016-10-03T05:05:52.216Z,1010.52
2016-10-03T05:06:52.191Z,1010.54
2016-10-03T05:07:52.167Z,1010.53
2016-10-03T05:08:52.141Z,1010.57
2016-10-03T05:09:52.115Z,1010.59
2016-10-03T05:10:52.091Z,1010.64
2016-10-03T05:11:52.065Z,1010.65
2016-10-03T05:12:52.040Z,1010.67
2016-10-03T05:13:52.015Z,1010.69
2016-10-03T05:14:51.991Z,1010.69
2016-10-03T05:15:51.967Z,1010.71
2016-10-03T05:16:51.943Z,1010.73
2016-10-03T05:17:51.918Z,1010.73
2016-10-03T05:18:51.891Z,1010.76
2016-10-03T05:19:51.866Z,1010.74
2016-10-03T05:20:51.844Z,1010.77
2016-10-03T05:21:51.819Z,1010.76
2016-10-03T05:22:51.793Z,1010.84
2016-10-03T05:23:51.770Z,1010.81
2016-10-03T05:24:51.743Z,1010.79
2016-10-03T05:25:51.723Z,1010.84
2016-10-03T05:26:51.694Z,1010.88
2016-10-03T05:27:51.668Z,1010.87
2016-10-03T05:28:51.643Z,1010.86
2016-10-03T05:29:51.621Z,1010.9
2016-10-03T05:30:51.594Z,1010.94
2016-10-03T05:31:51.572Z,1010.93
2016-10-03T05:32:51.547Z,1010.91
2016-10-03T05:33:51.522Z,1010.93
2016-10-03T05:34:51.498Z,1010.91
2016-10-03T05:35:51.473Z,1010.89
2016-10-03T05:36:51.449Z,1010.9
2016-10-03T05:37:51.424Z,1010.89
2016-10-03T05:38:51.398Z,1010.91
2016-10-03T05:39:51.375Z,1010.97
2016-10-03T05:40:51.349Z,1010.94
2016-10-03T05:41:51.325Z,1010.97
2016-10-03T05:42:51.301Z,1010.99
2016-10-03T05:43:51.276Z,1010.99
2016-10-03T05:44:51.248Z,1010.99
2016-10-03T05:45:51.224Z,1011.04
2016-10-03T05:46:51.201Z,1011.03
2016-10-03T05:47:51.178Z,1011.06
2016-10-03T05:48:51.149Z,1011.07
2016-10-03T05:49:51.125Z,1011.08
2016-10-03T05:50:51.103Z,1011.1
2016-10-03T05:51:51.075Z,1011.11
2016-10-03T05:52:51.054Z,1011.12
2016-10-03T05:53:51.027Z,1011.12
2016-10-03T05:54:51.001Z,1011.13
2016-10-03T05:55:50.977Z,1011.17
2016-10-03T05:56:50.953Z,1011.15
2016-10-03T05:57:50.926Z,1011.18
2016-10-03T05:58:50.902Z,1011.2
2016-10-03T05:59:50.878Z,1011.2
2016-10-03T06:00:50.853Z,1011.23
2016-10-03T06:01:50.828Z,1011.24
2016-10-03T06:02:50.802Z,1011.25
2016-10-03T06:03:50.780Z,1011.27
2016-10-03T06:04:50.754Z,1011.33
2016-10-03T06:05:50.728Z,1011.3
2016-10-03T06:06:50.704Z,1011.33
2016-10-03T06:07:50.680Z,1011.35
2016-10-03T06:08:50.656Z,1011.35
2016-10-03T06:09:50.629Z,1011.36
2016-10-03T06:10:50.606Z,1011.39
2016-10-03T06:11:50.587Z,1011.42
2016-10-03T06:12:50.555Z,1011.35
2016-10-03T06:13:50.529Z,1011.4
2016-10-03T06:14:50.505Z,1011.39
2016-10-03T06:15:50.481Z,1011.4
2016-10-03T06:16:50.457Z,1011.42
2016-10-03T06:17:50.432Z,1011.46
2016-10-03T06:18:50.407Z,1011.49
2016-10-03T06:19:50.382Z,1011.54
2016-10-03T06:20:50.357Z,1011.51
2016-10-03T06:21:50.334Z,1011.59
2016-10-03T06:22:50.308Z,1011.56
2016-10-03T06:23:50.286Z,1011.53
2016-10-03T06:24:50.261Z,1011.55
2016-10-03T06:25:50.234Z,1011.55
2016-10-03T06:26:50.209Z,1011.58
2016-10-03T06:27:50.185Z,1011.61
2016-10-03T06:28:50.161Z,1011.59
2016-10-03T06:29:50.139Z,1011.62
2016-10-03T06:30:50.112Z,1011.63
2016-10-03T06:31:50.088Z,1011.65
2016-10-03T06:32:50.068Z,1011.62
2016-10-03T06:33:50.039Z,1011.68
2016-10-03T06:34:50.014Z,1011.65
2016-10-03T06:35:49.991Z,1011.68
2016-10-03T06:36:49.967Z,1011.66
2016-10-03T06:37:49.944Z,1011.69
2016-10-03T06:38:49.919Z,1011.73
2016-10-03T06:39:49.899Z,1011.73
2016-10-03T06:40:49.870Z,1011.75
2016-10-03T06:41:49.845Z,1011.75
2016-10-03T06:42:49.819Z,1011.76
2016-10-03T06:43:49.794Z,1011.76
2016-10-03T06:44:49.772Z,1011.79
2016-10-03T06:45:49.746Z,1011.8
2016-10-03T06:46:49.720Z,1011.77
2016-10-03T06:47:49.697Z,1011.82
2016-10-03T06:48:49.675Z,1011.81
2016-10-03T06:49:49.650Z,1011.83
2016-10-03T06:50:49.625Z,1011.83
2016-10-03T06:51:49.598Z,1011.85
2016-10-03T06:52:49.581Z,1011.84
2016-10-03T06:53:49.550Z,1011.85
2016-10-03T06:54:49.526Z,1011.82
2016-10-03T06:55:49.501Z,1011.84
2016-10-03T06:56:49.476Z,1011.89
2016-10-03T06:57:49.452Z,1011.89
2016-10-03T06:58:49.428Z,1011.91
2016-10-03T06:59:49.402Z,1011.92
2016-10-03T07:00:49.378Z,1011.95
2016-10-03T07:01:49.354Z,1011.96
2016-10-03T07:02:49.330Z,1012
2016-10-03T07:03:49.303Z,1011.98
2016-10-03T07:04:49.282Z,1011.98
2016-10-03T07:05:49.257Z,1011.96
2016-10-03T07:06:49.233Z,1011.97
2016-10-03T07:07:49.208Z,1012.01
2016-10-03T07:08:49.182Z,1012
2016-10-03T07:09:49.160Z,1012.03
2016-10-03T07:10:49.136Z,1012.04
2016-10-03T07:11:49.111Z,1012.04
2016-10-03T07:12:49.085Z,1012.02
2016-10-03T07:13:49.063Z,1012.05
2016-10-03T07:14:49.040Z,1012.06
2016-10-03T07:15:49.013Z,1012.08
2016-10-03T07:16:48.989Z,1012.08
2016-10-03T07:17:48.967Z,1012.08
2016-10-03T07:18:48.941Z,1012.1
2016-10-03T07:19:48.916Z,1012.09
2016-10-03T07:20:48.892Z,1012.13
2016-10-03T07:21:48.868Z,1012.15
2016-10-03T07:22:48.845Z,1012.15
2016-10-03T07:23:48.819Z,1012.12
2016-10-03T07:24:48.798Z,1012.18
2016-10-03T07:25:48.773Z,1012.21
2016-10-03T07:26:48.750Z,1012.18
2016-10-03T07:27:48.724Z,1012.24
2016-10-03T07:28:48.702Z,1012.18
2016-10-03T07:29:48.676Z,1012.15
2016-10-03T07:30:48.651Z,1012.2
2016-10-03T07:31:48.629Z,1012.24
2016-10-03T07:32:48.606Z,1012.26
2016-10-03T07:33:48.581Z,1012.24
2016-10-03T07:34:48.555Z,1012.27
2016-10-03T07:35:48.732Z,1012.31
2016-10-03T07:36:48.510Z,1012.29
2016-10-03T07:37:48.484Z,1012.34
2016-10-03T07:38:48.460Z,1012.36
2016-10-03T07:39:48.439Z,1012.34
2016-10-03T07:40:48.413Z,1012.35
2016-10-03T07:41:48.390Z,1012.38
2016-10-03T07:42:48.365Z,1012.37
2016-10-03T07:43:48.341Z,1012.45
2016-10-03T07:44:48.317Z,1012.43
2016-10-03T07:45:48.295Z,1012.46
2016-10-03T07:46:48.272Z,1012.49
2016-10-03T07:47:48.245Z,1012.48
2016-10-03T07:48:48.221Z,1012.5
2016-10-03T07:49:48.199Z,1012.5
2016-10-03T07:50:48.176Z,1012.46
2016-10-03T07:51:48.150Z,1012.51
2016-10-03T07:52:48.126Z,1012.48
2016-10-03T07:53:48.104Z,1012.52
2016-10-03T07:54:48.081Z,1012.52
2016-10-03T07:55:48.057Z,1012.5
2016-10-03T07:56:48.032Z,1012.57
2016-10-03T07:57:48.010Z,1012.58
2016-10-03T07:58:47.984Z,1012.56
2016-10-03T07:59:47.960Z,1012.62
2016-10-03T08:00:47.939Z,1012.58
2016-10-03T08:01:47.913Z,1012.64
2016-10-03T08:02:47.892Z,1012.67
2016-10-03T08:03:47.867Z,1012.69
2016-10-03T08:04:47.844Z,1012.68
2016-10-03T08:05:47.821Z,1012.69
2016-10-03T08:06:47.796Z,1012.67
2016-10-03T08:07:47.772Z,1012.67
2016-10-03T08:08:47.749Z,1012.64
2016-10-03T08:09:47.728Z,1012.66
2016-10-03T08:10:47.701Z,1012.68
2016-10-03T08:11:47.682Z,1012.75
2016-10-03T08:12:47.657Z,1012.73
2016-10-03T08:13:47.636Z,1012.74
2016-10-03T08:14:47.613Z,1012.77
2016-10-03T08:15:47.589Z,1012.81
2016-10-03T08:16:47.564Z,1012.82
2016-10-03T08:17:47.541Z,1012.8
2016-10-03T08:18:47.520Z,1012.84
2016-10-03T08:19:47.495Z,1012.8
2016-10-03T08:20:47.473Z,1012.82
2016-10-03T08:21:47.449Z,1012.84
2016-10-03T08:22:47.427Z,1012.88
2016-10-03T08:23:47.407Z,1012.85
2016-10-03T08:24:47.384Z,1012.9
2016-10-03T08:25:47.361Z,1012.88
2016-10-03T08:26:47.339Z,1012.86
2016-10-03T08:27:47.317Z,1012.87
2016-10-03T08:28:47.294Z,1012.93
2016-10-03T08:29:47.272Z,1012.88
2016-10-03T08:30:47.254Z,1012.91
2016-10-03T08:31:47.230Z,1012.88
2016-10-03T08:32:47.202Z,1012.91
2016-10-03T08:33:47.180Z,1012.93
2016-10-03T08:34:47.159Z,1012.88
2016-10-03T08:35:47.137Z,1012.91
2016-10-03T08:36:47.115Z,1012.95
2016-10-03T08:37:47.096Z,1012.97
2016-10-03T08:38:47.072Z,1012.95
2016-10-03T08:39:47.051Z,1013.03
2016-10-03T08:40:47.031Z,1013.02
2016-10-03T08:41:47.007Z,1013.01
2016-10-03T08:42:46.987Z,1013
2016-10-03T08:43:46.963Z,1013.01
2016-10-03T08:44:46.943Z,1013.05
2016-10-03T08:45:46.922Z,1013.04
2016-10-03T08:46:46.899Z,1013.04
2016-10-03T08:47:46.876Z,1013.14
2016-10-03T08:48:46.855Z,1013.06
2016-10-03T08:49:46.834Z,1013.13
2016-10-03T08:50:46.812Z,1013.1
2016-10-03T08:51:46.793Z,1013.09
2016-10-03T08:52:46.774Z,1013.07
2016-10-03T08:53:46.749Z,1013.05
2016-10-03T08:54:46.730Z,1013.15
2016-10-03T08:55:46.707Z,1013.11
2016-10-03T08:56:46.687Z,1013.12
2016-10-03T08:57:46.668Z,1013.11
2016-10-03T08:58:46.645Z,1013.13
2016-10-03T08:59:46.625Z,1013.12
2016-10-03T09:00:46.607Z,1013.09
2016-10-03T09:01:46.583Z,1013.13
2016-10-03T09:02:46.566Z,1013.11
2016-10-03T09:03:46.546Z,1013.1
2016-10-03T09:04:46.526Z,1013.11
2016-10-03T09:05:46.506Z,1013.12
2016-10-03T09:06:46.483Z,1013.14
2016-10-03T09:07:46.466Z,1013.11
2016-10-03T09:08:46.445Z,1013.16
2016-10-03T09:09:46.426Z,1013.19
2016-10-03T09:10:46.405Z,1013.2
2016-10-03T09:11:46.385Z,1013.22
2016-10-03T09:12:46.365Z,1013.28
2016-10-03T09:13:46.348Z,1013.28
2016-10-03T09:14:46.328Z,1013.32
2016-10-03T09:15:46.307Z,1013.35
2016-10-03T09:16:46.288Z,1013.34
2016-10-03T09:17:46.267Z,1013.39
2016-10-03T09:18:46.245Z,1013.39
2016-10-03T09:19:46.225Z,1013.43
2016-10-03T09:20:46.204Z,1013.39
2016-10-03T09:21:46.184Z,1013.37
2016-10-03T09:22:46.163Z,1013.36
2016-10-03T09:23:46.144Z,1013.37
2016-10-03T09:24:46.121Z,1013.37
2016-10-03T09:25:46.103Z,1013.39
2016-10-03T09:26:46.083Z,1013.4
2016-10-03T09:27:46.059Z,1013.4
2016-10-03T09:28:46.040Z,1013.4
2016-10-03T09:29:46.019Z,1013.44
2016-10-03T09:30:45.999Z,1013.47
2016-10-03T09:31:45.974Z,1013.47
2016-10-03T09:32:45.954Z,1013.45
2016-10-03T09:33:45.933Z,1013.46
2016-10-03T09:34:45.913Z,1013.46
2016-10-03T09:35:45.893Z,1013.45
2016-10-03T09:36:45.871Z,1013.44
2016-10-03T09:37:45.852Z,1013.48
2016-10-03T09:38:45.828Z,1013.47
2016-10-03T09:39:45.809Z,1013.48
2016-10-03T09:40:45.788Z,1013.47
2016-10-03T09:41:45.768Z,1013.5
2016-10-03T09:42:45.747Z,1013.59
2016-10-03T09:43:45.729Z,1013.51
2016-10-03T09:44:45.706Z,1013.58
2016-10-03T09:45:45.687Z,1013.54
2016-10-03T09:46:45.667Z,1013.56
2016-10-03T09:47:45.646Z,1013.57
2016-10-03T09:48:45.624Z,1013.56
2016-10-03T09:49:45.602Z,1013.53
2016-10-03T09:50:45.584Z,1013.6
2016-10-03T09:51:45.563Z,1013.65
2016-10-03T09:52:45.554Z,1013.63
2016-10-03T09:53:45.521Z,1013.59
2016-10-03T09:54:45.500Z,1013.59
2016-10-03T09:55:45.477Z,1013.63
2016-10-03T09:56:45.460Z,1013.64
2016-10-03T09:57:45.437Z,1013.62
2016-10-03T09:58:45.413Z,1013.69
2016-10-03T09:59:45.392Z,1013.69
2016-10-03T10:00:45.373Z,1013.67
2016-10-03T10:01:45.349Z,1013.7
2016-10-03T10:02:45.329Z,1013.71
2016-10-03T10:03:45.307Z,1013.69
2016-10-03T10:04:45.285Z,1013.72
2016-10-03T10:05:45.266Z,1013.74
2016-10-03T10:06:45.245Z,1013.76
2016-10-03T10:07:45.227Z,1013.71
2016-10-03T10:08:45.202Z,1013.76
2016-10-03T10:09:45.179Z,1013.76
2016-10-03T10:10:45.158Z,1013.7
2016-10-03T10:11:45.136Z,1013.81
2016-10-03T10:12:45.116Z,1013.76
2016-10-03T10:13:45.096Z,1013.84
2016-10-03T10:14:45.073Z,1013.81
2016-10-03T10:15:45.054Z,1013.77
2016-10-03T10:16:45.031Z,1013.81
2016-10-03T10:17:45.016Z,1013.86
2016-10-03T10:18:44.990Z,1013.83
2016-10-03T10:19:44.969Z,1013.8
2016-10-03T10:20:44.947Z,1013.86
2016-10-03T10:21:44.928Z,1013.84
2016-10-03T10:22:44.904Z,1013.84
2016-10-03T10:23:44.883Z,1013.8
2016-10-03T10:24:44.864Z,1013.81
2016-10-03T10:25:44.844Z,1013.85
2016-10-03T10:26:44.820Z,1013.84
2016-10-03T10:27:44.803Z,1013.87
2016-10-03T10:28:44.781Z,1013.81
2016-10-03T10:29:44.758Z,1013.85
2016-10-03T10:30:44.741Z,1013.85
2016-10-03T10:31:44.719Z,1013.92
2016-10-03T10:32:44.701Z,1013.89
2016-10-03T10:33:44.678Z,1013.91
2016-10-03T10:34:44.661Z,1014.03
2016-10-03T10:35:44.641Z,1014.05
2016-10-03T10:36:44.617Z,1014.03
2016-10-03T10:37:44.599Z,1014
2016-10-03T10:38:44.829Z,1014
2016-10-03T10:39:44.556Z,1013.95
2016-10-03T10:40:44.536Z,1014.02
2016-10-03T10:41:44.515Z,1014.06
2016-10-03T10:42:44.497Z,1014.01
2016-10-03T10:43:44.476Z,1014.02
2016-10-03T10:44:44.455Z,1014.04
2016-10-03T10:45:44.434Z,1014.03
2016-10-03T10:46:44.412Z,1014.02
2016-10-03T10:47:44.392Z,1014.03
2016-10-03T10:48:44.373Z,1014.05
2016-10-03T10:49:44.351Z,1014.04
2016-10-03T10:50:44.329Z,1014.01
2016-10-03T10:51:44.310Z,1014.07
2016-10-03T10:52:44.290Z,1013.98
2016-10-03T10:53:44.267Z,1014.05
2016-10-03T10:54:44.247Z,1014.04
2016-10-03T10:55:44.228Z,1014.02
2016-10-03T10:56:44.208Z,1014.03
2016-10-03T10:57:44.186Z,1013.99
2016-10-03T10:58:44.167Z,1014.06
2016-10-03T10:59:44.147Z,1014.09
2016-10-03T11:00:44.125Z,1014.1
2016-10-03T11:01:44.105Z,1014.13
2016-10-03T11:02:44.087Z,1014.24
2016-10-03T11:03:44.067Z,1014.22
2016-10-03T11:04:44.045Z,1014.15
2016-10-03T11:05:44.027Z,1014.14
2016-10-03T11:06:44.005Z,1014.16
2016-10-03T11:07:43.986Z,1014.13
2016-10-03T11:08:43.963Z,1014.16
2016-10-03T11:09:43.944Z,1014.15
2016-10-03T11:10:43.925Z,1014.18
2016-10-03T11:11:43.905Z,1014.1
2016-10-03T11:12:43.883Z,1014.15
2016-10-03T11:13:43.865Z,1014.12
2016-10-03T11:14:43.844Z,1014.17
2016-10-03T11:15:43.828Z,1014.17
2016-10-03T11:16:43.808Z,1014.18
2016-10-03T11:17:43.785Z,1014.24
2016-10-03T11:18:43.766Z,1014.19
2016-10-03T11:19:43.749Z,1014.27
2016-10-03T11:20:43.727Z,1014.36
2016-10-03T11:21:43.710Z,1014.29
2016-10-03T11:22:43.691Z,1014.28
2016-10-03T11:23:43.669Z,1014.3
2016-10-03T11:24:43.651Z,1014.31
2016-10-03T11:25:43.629Z,1014.29
2016-10-03T11:26:43.610Z,1014.3
2016-10-03T11:27:43.593Z,1014.31
2016-10-03T11:28:43.572Z,1014.25
2016-10-03T11:29:43.552Z,1014.29
2016-10-03T11:30:43.532Z,1014.3
2016-10-03T11:31:43.508Z,1014.25
2016-10-03T11:32:43.489Z,1014.28
2016-10-03T11:33:43.470Z,1014.32
2016-10-03T11:34:43.451Z,1014.33
2016-10-03T11:35:43.429Z,1014.3
2016-10-03T11:36:43.408Z,1014.32
2016-10-03T11:38:43.370Z,1014.32
2016-10-03T11:39:43.348Z,1014.33
2016-10-03T11:40:43.328Z,1014.31
2016-10-03T11:41:43.308Z,1014.37
2016-10-03T11:42:43.287Z,1014.31
2016-10-03T11:43:43.267Z,1014.33
2016-10-03T11:44:43.246Z,1014.44
2016-10-03T11:45:43.227Z,1014.34
2016-10-03T11:46:43.206Z,1014.36
2016-10-03T11:47:43.184Z,1014.39
2016-10-03T11:48:43.166Z,1014.39
2016-10-03T11:49:43.146Z,1014.46
2016-10-03T11:50:43.126Z,1014.4
2016-10-03T11:51:43.106Z,1014.35
2016-10-03T11:52:43.087Z,1014.33
2016-10-03T11:53:43.066Z,1014.46
2016-10-03T11:54:43.045Z,1014.4
2016-10-03T11:55:43.027Z,1014.36
2016-10-03T11:56:43.007Z,1014.35
2016-10-03T11:57:42.989Z,1014.38
2016-10-03T11:58:42.970Z,1014.39
2016-10-03T11:59:42.950Z,1014.37
2016-10-03T12:00:42.931Z,1014.45
2016-10-03T12:01:42.911Z,1014.4
2016-10-03T12:02:42.892Z,1014.42
2016-10-03T12:03:42.874Z,1014.44
2016-10-03T12:04:42.855Z,1014.45
2016-10-03T12:05:42.835Z,1014.49
2016-10-03T12:06:42.818Z,1014.51
2016-10-03T12:07:42.890Z,1014.5
2016-10-03T12:08:42.845Z,1014.48
2016-10-03T12:09:42.879Z,1014.56